createdAt,value
2023-01-29T00:00:15.995Z,26.25
2023-01-29T00:02:44.489Z,25.98
2023-01-29T00:05:27.103Z,27.10
2023-01-29T00:08:02.608Z,27.55
2023-01-29T00:10:31.268Z,26.42
2023-01-29T00:12:59.757Z,29.80
2023-01-29T00:15:28.252Z,38.22
2023-01-29T00:17:56.413Z,50.53
2023-01-29T00:20:24.673Z,67.00
2023-01-29T00:22:52.933Z,35.35
2023-01-29T00:25:21.341Z,24.42
2023-01-29T00:27:50.470Z,24.33
2023-01-29T00:30:20.327Z,22.10
2023-01-29T00:32:48.930Z,17.80
2023-01-29T00:35:17.331Z,20.73
2023-01-29T00:37:45.566Z,23.08
2023-01-29T00:40:14.318Z,20.95
2023-01-29T00:43:03.958Z,26.58
2023-01-29T00:45:34.131Z,21.85
2023-01-29T00:48:02.577Z,24.65
2023-01-29T00:50:31.700Z,26.08
2023-01-29T00:53:00.470Z,28.08
2023-01-29T00:55:28.615Z,22.90
2023-01-29T00:57:57.156Z,22.00
2023-01-29T01:00:25.973Z,24.65
2023-01-29T01:03:06.548Z,22.15
2023-01-29T01:05:35.680Z,27.38
2023-01-29T01:08:25.440Z,22.30
2023-01-29T01:11:00.631Z,23.83
2023-01-29T01:13:29.893Z,27.45
2023-01-29T01:15:58.469Z,22.27
2023-01-29T01:18:31.447Z,27.58
2023-01-29T01:21:00.177Z,27.67
2023-01-29T01:23:28.777Z,22.80
2023-01-29T01:25:57.613Z,24.52
2023-01-29T01:28:26.332Z,23.05
2023-01-29T01:30:55.302Z,27.17
2023-01-29T01:33:24.475Z,26.50
2023-01-29T01:35:53.198Z,23.10
2023-01-29T01:38:22.944Z,27.50
2023-01-29T01:40:51.094Z,27.60
2023-01-29T01:43:19.354Z,27.10
2023-01-29T01:45:48.246Z,26.08
2023-01-29T01:48:27.379Z,24.33
2023-01-29T01:51:04.250Z,26.63
2023-01-29T01:53:44.226Z,23.70
2023-01-29T01:56:16.741Z,28.83
2023-01-29T01:58:53.983Z,27.58
2023-01-29T02:01:28.854Z,24.55
2023-01-29T02:04:27.254Z,26.88
2023-01-29T02:07:17.973Z,26.55
2023-01-29T02:10:06.217Z,26.88
2023-01-29T02:12:34.732Z,28.75
2023-01-29T02:15:03.772Z,25.70
2023-01-29T02:17:33.591Z,26.02
2023-01-29T02:20:26.323Z,28.73
2023-01-29T02:22:56.483Z,24.30
2023-01-29T02:25:55.443Z,25.70
2023-01-29T02:28:33.414Z,28.27
2023-01-29T02:31:17.561Z,28.55
2023-01-29T02:33:58.886Z,26.15
2023-01-29T02:36:39.643Z,27.20
2023-01-29T02:39:18.322Z,26.27
2023-01-29T02:42:00.483Z,23.33
2023-01-29T02:44:41.447Z,29.98
2023-01-29T02:47:26.442Z,26.17
2023-01-29T02:50:16.474Z,30.10
2023-01-29T02:52:50.444Z,31.08
2023-01-29T02:55:29.633Z,31.00
2023-01-29T02:58:12.005Z,25.27
2023-01-29T03:00:48.309Z,31.67
2023-01-29T03:03:25.810Z,30.35
2023-01-29T03:06:00.726Z,27.25
2023-01-29T03:09:03.216Z,29.00
2023-01-29T03:11:54.725Z,29.73
2023-01-29T03:14:54.651Z,29.63
2023-01-29T03:17:27.643Z,31.80
2023-01-29T03:19:56.843Z,31.25
2023-01-29T03:22:28.197Z,28.17
2023-01-29T03:25:18.032Z,26.52
2023-01-29T03:28:18.111Z,28.77
2023-01-29T03:31:12.990Z,25.48
2023-01-29T03:34:24.502Z,26.15
2023-01-29T03:36:58.085Z,31.13
2023-01-29T03:39:30.046Z,27.08
2023-01-29T03:42:30.920Z,28.10
2023-01-29T03:45:26.149Z,29.75
2023-01-29T03:48:29.513Z,29.70
2023-01-29T03:51:16.713Z,26.60
2023-01-29T03:53:51.032Z,25.55
2023-01-29T03:56:33.926Z,27.67
2023-01-29T03:59:34.513Z,30.45
2023-01-29T04:02:28.311Z,28.70
2023-01-29T04:05:14.781Z,26.77
2023-01-29T04:08:03.423Z,26.75
2023-01-29T04:10:36.561Z,24.35
2023-01-29T04:13:11.156Z,24.58
2023-01-29T04:15:47.115Z,23.70
2023-01-29T04:18:15.872Z,27.58
2023-01-29T04:21:08.117Z,25.13
2023-01-29T04:23:37.153Z,27.40
2023-01-29T04:26:28.153Z,28.10
2023-01-29T04:29:09.714Z,26.77
2023-01-29T04:31:48.255Z,27.38
2023-01-29T04:34:26.537Z,27.27
2023-01-29T04:36:54.423Z,30.33
2023-01-29T04:39:31.764Z,28.42
2023-01-29T04:42:09.300Z,30.10
2023-01-29T04:44:52.782Z,29.17
2023-01-29T04:48:13.102Z,30.20
2023-01-29T04:51:08.823Z,31.92
2023-01-29T04:54:11.451Z,28.15
2023-01-29T04:57:18.303Z,30.95
2023-01-29T04:59:51.722Z,32.20
2023-01-29T05:02:23.286Z,28.15
2023-01-29T05:04:53.645Z,31.65
2023-01-29T05:07:25.247Z,27.90
2023-01-29T05:09:54.522Z,31.88
2023-01-29T05:12:27.561Z,35.50
2023-01-29T05:14:59.122Z,33.15
2023-01-29T05:17:28.762Z,32.30
2023-01-29T05:19:57.984Z,30.58
2023-01-29T05:22:27.423Z,27.63
2023-01-29T05:24:56.104Z,28.33
2023-01-29T05:27:54.212Z,27.83
2023-01-29T05:30:23.593Z,30.80
2023-01-29T05:32:52.269Z,28.45
2023-01-29T05:35:20.917Z,29.17
2023-01-29T05:37:49.742Z,31.52
2023-01-29T19:06:02.574Z,26.67
2023-01-29T19:08:31.417Z,25.35
2023-01-29T19:11:02.830Z,27.48
2023-01-29T19:13:32.449Z,26.67
2023-01-29T19:16:01.038Z,29.10
2023-01-29T19:18:29.464Z,25.00
2023-01-29T19:20:58.013Z,26.48
2023-01-29T19:23:26.174Z,25.75
2023-01-29T19:25:57.705Z,22.92
2023-01-29T19:28:26.127Z,27.98
2023-01-29T19:30:58.322Z,27.75
2023-01-29T19:33:30.507Z,30.08
2023-01-29T19:36:00.109Z,28.70
2023-01-29T19:38:33.656Z,27.63
2023-01-29T19:41:02.676Z,25.48
2023-01-29T19:43:31.875Z,24.60
2023-01-29T19:46:03.408Z,27.77
2023-01-29T19:48:32.495Z,24.52
2023-01-29T19:51:10.422Z,28.25
2023-01-29T19:53:40.742Z,27.52
2023-01-29T19:56:11.605Z,27.80
2023-01-29T19:58:39.968Z,28.35
2023-01-29T20:01:15.263Z,25.48
2023-01-29T20:03:46.824Z,26.58
2023-01-29T20:06:17.767Z,27.20
2023-01-29T20:08:49.056Z,26.88
2023-01-29T20:11:19.713Z,25.77
2023-01-29T20:13:50.196Z,28.13
2023-01-29T20:16:19.299Z,27.63
2023-01-29T20:18:47.780Z,27.23
2023-01-29T20:21:18.651Z,26.88
2023-01-29T20:23:49.441Z,29.77
2023-01-29T20:26:18.975Z,31.05
2023-01-29T20:28:48.127Z,28.25
2023-01-29T20:31:16.932Z,30.15
2023-01-29T20:33:45.264Z,27.95
2023-01-29T20:36:15.489Z,27.80
2023-01-29T20:38:43.782Z,29.73
2023-01-29T20:41:17.081Z,28.42
2023-01-29T20:43:46.484Z,26.13
2023-01-29T20:46:18.507Z,28.80
2023-01-29T20:48:50.787Z,30.70
2023-01-29T20:51:19.189Z,27.05
2023-01-29T20:53:48.438Z,28.83
2023-01-29T20:56:36.300Z,29.13
2023-01-29T20:59:10.990Z,28.55
2023-01-29T21:01:39.226Z,26.70
2023-01-29T21:04:07.336Z,29.27
2023-01-29T21:06:35.693Z,28.48
2023-01-29T21:09:04.448Z,26.55
2023-01-29T21:11:33.952Z,28.50
2023-01-29T21:14:02.364Z,26.30
2023-01-29T21:16:30.951Z,26.45
2023-01-29T21:18:59.536Z,28.27
2023-01-29T21:21:28.074Z,27.17
2023-01-29T21:23:56.364Z,26.60
2023-01-29T21:26:25.489Z,26.98
2023-01-29T21:28:53.650Z,24.00
2023-01-29T21:31:22.167Z,27.75
2023-01-29T21:33:50.576Z,23.77
2023-01-29T21:36:18.923Z,21.77
2023-01-29T21:38:47.298Z,24.75
2023-01-29T21:41:15.742Z,30.60
2023-01-29T21:44:03.434Z,31.60
2023-01-29T21:46:40.932Z,32.42
2023-01-29T21:49:10.753Z,39.55
2023-01-29T21:51:39.146Z,44.38
2023-01-29T21:54:07.298Z,44.65
2023-01-29T21:56:35.948Z,73.05
2023-01-29T21:59:04.636Z,82.53
2023-01-29T22:01:37.515Z,71.30
2023-01-29T22:04:09.178Z,132.55
2023-01-29T22:06:37.824Z,132.70
2023-01-29T22:09:08.906Z,106.43
2023-01-29T22:11:42.217Z,83.47
2023-01-29T22:14:10.870Z,68.70
2023-01-29T22:16:39.208Z,93.45
2023-01-29T22:19:07.906Z,68.75
2023-01-29T22:21:36.253Z,38.70
2023-01-29T22:24:14.102Z,33.95
2023-01-29T22:26:43.309Z,33.40
2023-01-29T22:29:18.019Z,27.73
2023-01-29T22:31:46.584Z,30.95
2023-01-29T22:34:15.700Z,31.35
2023-01-29T22:36:44.062Z,31.40
2023-01-29T22:39:12.987Z,30.33
2023-01-29T22:41:41.173Z,29.25
2023-01-29T22:44:12.038Z,28.92
2023-01-29T22:46:41.211Z,29.38
2023-01-29T22:49:09.529Z,31.63
2023-01-29T22:51:37.776Z,25.80
2023-01-29T22:54:05.933Z,30.35
2023-01-29T22:56:34.377Z,33.63
2023-01-29T22:59:02.828Z,35.20
2023-01-29T23:01:32.751Z,38.70
2023-01-29T23:04:00.892Z,38.47
2023-01-29T23:06:29.693Z,36.58
2023-01-29T23:08:57.892Z,39.17
2023-01-29T23:11:26.052Z,38.20
2023-01-29T23:13:55.660Z,44.00
2023-01-29T23:16:27.956Z,41.90
2023-01-29T23:18:57.090Z,44.58
2023-01-29T23:21:26.493Z,40.28
2023-01-29T23:23:59.271Z,44.45
2023-01-29T23:26:47.965Z,46.13
2023-01-29T23:29:16.381Z,40.20
2023-01-29T23:31:44.541Z,42.70
2023-01-29T23:34:14.448Z,42.92
2023-01-29T23:36:43.401Z,42.22
2023-01-29T23:39:11.608Z,44.15
2023-01-29T23:41:40.382Z,42.17
2023-01-29T23:44:08.843Z,43.60
2023-01-29T23:46:37.205Z,42.03
2023-01-29T23:49:05.442Z,44.88
2023-01-29T23:51:33.797Z,46.72
2023-01-29T23:54:02.007Z,41.42
2023-01-29T23:56:30.414Z,43.15
2023-01-29T23:58:59.363Z,38.50
